Capitol Logistics 316


KRFD
Chicago/Rockford International Airport
Rockford, Illinois, US
PANC
Ted Stevens Anchorage International Airport
Anchorage, Alaska, US

Route Details

Aircraft Information
Primary: Boeing 767-300BDSF
Backup: Not Available
Route Data
Distance: 2468nm
Sched. Duration: 6h 00m
Avg. Duration: 6h 28m (+28m)
Times Flown: 12
Recm'd Route: ODI J36 GEP MOT J483 VLN J475 YWV NCA11 REMBY WITTI4
Planned Altitude: 34,000ft
Origin Wx: KRFD 032154Z 03007KT 10SM SCT060 SCT250 31/17 A3003 RMK AO2 SLP165 CB DSNT NE MOV SW T03110172
Dest. Wx: PANC 032153Z 30006KT 10SM FEW060 BKN200 22/12 A3000 RMK AO2 SLP159 T02220117 $
Notes:

Financial History
Total Freight: 1,120,377lbs
Average Load: 93,365lbs/flt
Fuel Used: 867,869lbs
Avg. Fuel Used: 72,322lbs/flt
Fuel Expense: $621,906
Avg. Fuel Expense: $51,826
Avg. Fuel Cost: $0.72/lbs
Total Gross Income: $2,295,837
Pilot Pay: $2,018
Total Expenses: $251,113
Total Revenue: $1,404,535
Average Revenue: $191,319.71